METAR AND TAF INFORMATION
METAR FOR SPZO
ADDS - METARS form results

(1655 UTC 15 January 2021)
Data provider http://aviationweather.gov/metar/data/
 
METAR text: SPZO 151630Z 10005KT 020V180 9999 SCT043 BKN080 16/06 Q1029 NOSIG RMK BIRD HAZARD RWY 28
Conditions at: SPZO (CUZCO/VELAZCO AS, PE) observed 1630 UTC 15 January 2021
Temperature: 16.0°C (61°F)
Dewpoint: 6.0°C (43°F) [RH = 51%]
Pressure (altimeter): 30.38 inches Hg (1029.0 mb)
Winds: from the E (100 degrees) at 6 MPH (5 knots; 2.6 m/s)
Visibility: 6 or more miles (10+ km)
Ceiling: 8000 feet AGL
Clouds: scattered clouds at 4300 feet AGL
broken clouds at 8000 feet AGL
Weather: no significant weather observed at this time

METAR text: SPZO 151600Z 34001KT 9999 VCSH SCT043 OVC080 16/05 Q1029 NOSIG RMK BIRD HAZARD RWY 28 PP000
Conditions at: SPZO (CUZCO/VELAZCO AS, PE) observed 1600 UTC 15 January 2021
Temperature: 16.0°C (61°F)
Dewpoint: 5.0°C (41°F) [RH = 48%]
Pressure (altimeter): 30.38 inches Hg (1029.0 mb)
Winds: from the NNW (340 degrees) at 1 MPH (1 knots; 0.5 m/s)
Visibility: 6 or more miles (10+ km)
Ceiling: 8000 feet AGL
Clouds: scattered clouds at 4300 feet AGL
overcast cloud deck at 8000 feet AGL
Weather: VCSH  (showers in vicinity)

Forecast for: SPZO (CUZCO/VELAZCO AS, PE)
Text: TAF SPZO 151100Z 1512/1612 10003KT 9999 SCT036 BKN080 TX20/1519Z TN08/1611Z
Forecast period: 1200 UTC 15 January 2021 to 1200 UTC 16 January 2021
Forecast type: FROM: standard forecast or significant change
Winds: from the E (100 degrees) at 3 MPH (3 knots; 1.5 m/s)
Visibility: 6 or more miles (10+ km)
Ceiling: 8000 feet AGL
Clouds: scattered clouds at 3600 feet AGL
broken clouds at 8000 feet AGL
Weather: no significant weather forecast for this period
Text: TEMPO 1518/1522 36010KT FEW040TCU BKN080
Forecast period: 1800 to 2200 UTC 15 January 2021
Forecast type: TEMPORARY: The following changes expected for less than half the time period
Winds: from the N (360 degrees) at 12 MPH (10 knots; 5.1 m/s)
Visibility: missing
Ceiling: 8000 feet AGL
Clouds: few clouds at 4000 feet AGL
broken clouds at 8000 feet AGL
Weather: no significant weather forecast for this period

 AIRPORT MAP

 RUNWAY INFORMATION
Runway 10 Runway length 11146 ft Runway width 148 ft
Runway elevation 10860 ft Runway displaced threshold 0 ft Runway heading 96
Runway 28 Runway length 11146 ft Runway width 148 ft
Runway elevation 10702 ft Runway displaced threshold 0 ft Runway heading 276

 AIRPORT FREQUENCIES
Type APP Name CUSCO APP Frequency 120.6 MHZ
Type ATIS Name ATIS Frequency 127 MHZ
Type GND Name GND Frequency 121.9 MHZ
Type TWR Name CUSCO TWR Frequency 118.1 MHZ

 AIRPORT NEAR NAVIGATION AIDS
Type VOR-DME Name Urcos Frequency 115600 KHZ
Type VOR-DME Name Cusco Frequency 114900 KHZ